createdAt,value
2018-12-29T00:01:36.735Z,90.50
2018-12-29T00:04:06.164Z,90.50
2018-12-29T00:06:35.580Z,90.40
2018-12-29T00:09:06.192Z,90.50
2018-12-29T00:11:35.591Z,90.50
2018-12-29T00:14:04.983Z,90.50
2018-12-29T00:16:34.396Z,90.50
2018-12-29T00:19:03.802Z,90.40
2018-12-29T00:21:33.767Z,90.50
2018-12-29T00:24:03.113Z,90.60
2018-12-29T00:26:32.522Z,90.70
2018-12-29T00:29:01.964Z,90.90
2018-12-29T00:31:31.336Z,91.00
2018-12-29T00:34:00.715Z,91.00
2018-12-29T00:36:30.121Z,91.00
2018-12-29T00:38:59.507Z,91.10
2018-12-29T00:41:28.847Z,91.00
2018-12-29T00:43:58.235Z,90.90
2018-12-29T00:46:27.607Z,90.90
2018-12-29T00:48:57.017Z,90.80
2018-12-29T00:51:26.431Z,90.90
2018-12-29T00:53:55.823Z,90.90
2018-12-29T00:56:25.208Z,90.90
2018-12-29T00:58:54.627Z,91.00
2018-12-29T01:01:24.007Z,91.00
2018-12-29T01:03:53.459Z,91.00
2018-12-29T01:06:22.831Z,90.90
2018-12-29T01:08:52.227Z,90.80
2018-12-29T01:11:21.645Z,90.80
2018-12-29T01:13:51.019Z,90.70
2018-12-29T01:16:20.411Z,90.70
2018-12-29T01:18:49.791Z,90.70
2018-12-29T01:21:19.340Z,90.70
2018-12-29T01:23:48.751Z,90.80
2018-12-29T01:26:18.123Z,90.70
2018-12-29T01:28:47.548Z,90.70
2018-12-29T01:31:16.915Z,90.70
2018-12-29T01:33:46.325Z,90.80
2018-12-29T01:36:15.696Z,90.90
2018-12-29T01:38:45.148Z,90.90
2018-12-29T01:41:14.536Z,90.90
2018-12-29T01:43:43.916Z,90.80
2018-12-29T01:46:13.303Z,90.80
2018-12-29T01:48:45.001Z,90.70
2018-12-29T01:51:14.447Z,90.70
2018-12-29T01:53:48.220Z,90.80
2018-12-29T01:56:17.654Z,90.80
2018-12-29T01:58:47.052Z,90.70
2018-12-29T02:01:16.427Z,90.70
2018-12-29T02:03:45.822Z,90.70
2018-12-29T02:06:15.194Z,90.70
2018-12-29T02:08:44.727Z,90.70
2018-12-29T02:11:14.127Z,90.70
2018-12-29T02:13:43.552Z,90.70
2018-12-29T02:16:12.945Z,90.70
2018-12-29T02:18:42.324Z,90.70
2018-12-29T02:21:11.732Z,90.70
2018-12-29T02:23:41.151Z,90.80
2018-12-29T02:26:10.603Z,90.90
2018-12-29T02:28:39.969Z,90.90
2018-12-29T02:31:09.416Z,90.90
2018-12-29T02:33:38.798Z,90.90
2018-12-29T02:36:08.171Z,91.00
2018-12-29T02:38:37.587Z,90.90
2018-12-29T02:41:06.964Z,90.80
2018-12-29T02:43:37.049Z,90.70
2018-12-29T02:46:06.415Z,90.70
2018-12-29T02:48:35.868Z,90.80
2018-12-29T02:51:05.244Z,90.80
2018-12-29T02:53:34.628Z,90.70
2018-12-29T02:56:04.031Z,90.70
2018-12-29T02:58:37.107Z,90.70
2018-12-29T03:01:06.508Z,90.70
2018-12-29T03:03:36.313Z,90.60
2018-12-29T03:06:05.777Z,90.60
2018-12-29T03:08:35.151Z,90.60
2018-12-29T03:11:06.659Z,90.60
2018-12-29T03:13:36.091Z,90.60
2018-12-29T03:16:05.478Z,90.60
2018-12-29T03:18:34.908Z,90.50
2018-12-29T03:21:04.357Z,90.50
2018-12-29T03:23:33.795Z,90.60
2018-12-29T03:26:03.209Z,90.70
2018-12-29T03:28:32.592Z,90.70
2018-12-29T03:31:02.005Z,90.70
2018-12-29T03:33:31.408Z,90.60
2018-12-29T03:36:00.818Z,90.60
2018-12-29T03:38:30.215Z,90.60
2018-12-29T03:41:00.064Z,90.60
2018-12-29T03:43:29.435Z,90.70
2018-12-29T03:45:58.827Z,90.70
2018-12-29T03:48:28.243Z,90.80
2018-12-29T03:50:57.628Z,90.80
2018-12-29T03:53:27.159Z,90.80
2018-12-29T03:55:56.560Z,90.80
2018-12-29T03:58:25.984Z,90.70
2018-12-29T04:00:55.380Z,90.70
2018-12-29T04:03:24.769Z,90.70
2018-12-29T04:05:54.181Z,90.70
2018-12-29T04:08:23.571Z,90.70
2018-12-29T04:10:55.030Z,90.60
2018-12-29T04:13:24.485Z,90.60
2018-12-29T04:15:58.251Z,90.70
2018-12-29T04:18:25.021Z,90.60
2018-12-29T04:20:54.405Z,90.50
2018-12-29T04:23:23.819Z,90.30
2018-12-29T04:25:53.219Z,90.40
2018-12-29T04:28:22.663Z,90.40
2018-12-29T04:30:52.047Z,90.60
2018-12-29T04:33:21.503Z,90.70
2018-12-29T04:35:50.883Z,90.60
2018-12-29T04:38:20.269Z,90.60
2018-12-29T04:40:49.709Z,90.40
2018-12-29T04:43:19.063Z,90.40
2018-12-29T04:45:48.462Z,90.40
2018-12-29T04:48:17.840Z,90.30
2018-12-29T04:50:47.259Z,90.30
2018-12-29T04:53:16.584Z,90.30
2018-12-29T04:55:45.995Z,90.30
2018-12-29T04:58:15.383Z,90.30
2018-12-29T05:00:44.835Z,90.50
2018-12-29T05:03:14.228Z,90.50
2018-12-29T05:05:43.627Z,90.60
2018-12-29T05:08:13.066Z,90.60
2018-12-29T05:10:42.439Z,90.50
2018-12-29T05:13:11.843Z,90.50
2018-12-29T05:15:41.229Z,90.70
2018-12-29T05:18:10.607Z,91.00
2018-12-29T05:20:40.003Z,90.70
2018-12-29T05:23:09.434Z,90.70
2018-12-29T05:25:38.897Z,90.60
2018-12-29T05:28:08.306Z,90.60
2018-12-29T05:30:37.683Z,90.50
2018-12-29T05:33:07.091Z,90.50
2018-12-29T05:35:36.495Z,90.40
2018-12-29T05:38:05.902Z,90.30
2018-12-29T05:40:35.272Z,90.30
2018-12-29T05:43:04.697Z,90.30
2018-12-29T05:45:34.130Z,90.20
2018-12-29T05:48:03.459Z,90.30
2018-12-29T05:50:32.875Z,90.20
2018-12-29T05:53:02.268Z,90.10
2018-12-29T05:55:31.712Z,90.10
2018-12-29T05:58:01.095Z,90.10
2018-12-29T06:00:30.519Z,90.10
2018-12-29T06:02:59.907Z,90.20
2018-12-29T06:05:29.284Z,90.20
2018-12-29T06:07:58.702Z,90.10
2018-12-29T06:10:28.102Z,90.00
2018-12-29T06:12:57.534Z,89.70
2018-12-29T06:15:26.851Z,89.80
2018-12-29T06:17:56.356Z,90.10
2018-12-29T06:20:25.760Z,90.10
2018-12-29T06:22:55.211Z,90.10
2018-12-29T06:25:24.636Z,90.00
2018-12-29T06:27:54.071Z,90.00
2018-12-29T06:30:23.468Z,89.90
2018-12-29T06:32:52.871Z,89.90
2018-12-29T06:35:22.431Z,89.80
2018-12-29T06:37:51.899Z,89.70
2018-12-29T06:40:22.382Z,89.50
2018-12-29T06:42:51.824Z,89.80
2018-12-29T06:45:21.203Z,89.80
2018-12-29T06:47:50.627Z,90.00
2018-12-29T06:50:20.019Z,90.00
2018-12-29T06:52:49.444Z,90.00
2018-12-29T06:55:18.846Z,90.00
2018-12-29T06:57:48.241Z,90.00
2018-12-29T07:00:17.665Z,90.00
2018-12-29T07:02:47.047Z,90.00
2018-12-29T07:05:16.450Z,90.10
2018-12-29T07:07:45.839Z,90.10
2018-12-29T07:10:15.372Z,90.10
2018-12-29T07:12:44.822Z,90.10
2018-12-29T07:15:14.172Z,90.10
2018-12-29T07:17:43.591Z,89.90
2018-12-29T07:20:12.976Z,89.90
2018-12-29T07:22:42.404Z,89.80
2018-12-29T07:25:11.850Z,89.50
2018-12-29T07:27:41.385Z,89.40
2018-12-29T07:30:10.799Z,89.30
2018-12-29T07:32:40.200Z,89.30
2018-12-29T07:35:09.674Z,89.40
2018-12-29T07:37:39.059Z,89.60
2018-12-29T07:40:08.394Z,89.50
2018-12-29T07:42:37.786Z,89.40
2018-12-29T07:45:07.244Z,89.00
2018-12-29T07:47:36.636Z,88.90
2018-12-29T07:50:06.133Z,89.10
2018-12-29T07:52:35.549Z,89.10
2018-12-29T07:55:04.939Z,89.10
2018-12-29T07:57:34.355Z,89.00
2018-12-29T08:00:03.909Z,88.90
2018-12-29T08:02:33.339Z,88.90
2018-12-29T08:05:02.719Z,88.90
2018-12-29T08:07:32.107Z,88.90
2018-12-29T08:10:01.522Z,88.80
2018-12-29T08:12:30.904Z,88.70
2018-12-29T08:15:00.310Z,88.60
2018-12-29T08:17:29.695Z,88.60
2018-12-29T08:19:59.081Z,88.30
2018-12-29T08:22:28.491Z,87.90
2018-12-29T08:24:57.901Z,87.80
2018-12-29T08:27:27.335Z,88.00
2018-12-29T08:29:56.731Z,88.10
2018-12-29T08:32:26.132Z,88.20
2018-12-29T08:34:55.812Z,88.10
2018-12-29T08:37:25.220Z,88.10
2018-12-29T08:39:54.632Z,88.20
2018-12-29T08:42:24.011Z,88.20
2018-12-29T08:44:53.404Z,88.20
2018-12-29T08:47:22.830Z,88.10
2018-12-29T08:49:52.199Z,88.40
2018-12-29T08:52:21.604Z,88.10
2018-12-29T08:54:50.999Z,88.20
2018-12-29T08:57:20.379Z,88.40
2018-12-29T08:59:49.803Z,88.40
2018-12-29T09:02:19.191Z,88.40
2018-12-29T09:04:48.605Z,88.50
2018-12-29T09:07:17.981Z,88.40
2018-12-29T09:09:47.375Z,88.40
2018-12-29T09:12:16.774Z,88.50
2018-12-29T09:14:46.159Z,88.50
2018-12-29T09:17:15.572Z,89.00
2018-12-29T09:19:44.991Z,88.20
2018-12-29T09:22:14.387Z,88.10
2018-12-29T09:24:43.811Z,87.70
2018-12-29T09:27:13.279Z,87.70
2018-12-29T09:29:42.748Z,87.50
2018-12-29T09:32:12.119Z,87.40
2018-12-29T09:34:41.493Z,87.60
2018-12-29T09:37:10.911Z,87.70
2018-12-29T09:39:40.291Z,87.60
2018-12-29T09:42:09.697Z,87.40
2018-12-29T09:44:39.163Z,87.50
2018-12-29T09:47:08.537Z,87.40
2018-12-29T09:49:37.904Z,87.20
2018-12-29T09:52:07.331Z,87.00
2018-12-29T09:54:36.742Z,86.40
2018-12-29T09:57:06.165Z,85.90
2018-12-29T09:59:35.544Z,85.70
2018-12-29T10:02:05.198Z,85.90
2018-12-29T10:04:34.577Z,86.10
2018-12-29T10:07:03.963Z,86.30
2018-12-29T10:09:33.387Z,86.50
2018-12-29T10:12:02.817Z,86.50
2018-12-29T10:14:32.245Z,86.00
2018-12-29T10:17:01.707Z,86.10
2018-12-29T10:19:31.115Z,86.50
2018-12-29T10:22:00.497Z,86.00
2018-12-29T10:24:30.003Z,85.60
2018-12-29T10:26:59.652Z,85.10
2018-12-29T10:29:29.080Z,85.10
2018-12-29T10:31:58.492Z,84.80
2018-12-29T10:34:27.867Z,84.60
2018-12-29T10:36:57.322Z,84.50
2018-12-29T10:39:26.712Z,84.30
2018-12-29T10:41:56.119Z,84.40
2018-12-29T10:44:25.552Z,84.60
2018-12-29T10:46:54.931Z,84.70
2018-12-29T10:49:24.381Z,84.80
2018-12-29T10:51:53.775Z,84.80
2018-12-29T10:54:23.199Z,84.70
2018-12-29T10:56:52.592Z,84.60
2018-12-29T10:59:21.994Z,84.60
2018-12-29T11:01:51.398Z,84.60
2018-12-29T11:04:20.823Z,84.70
2018-12-29T11:06:50.332Z,84.80
2018-12-29T11:09:19.715Z,84.60
2018-12-29T11:11:49.162Z,84.20
2018-12-29T11:14:18.549Z,84.00
2018-12-29T11:16:49.256Z,84.00
2018-12-29T11:19:18.678Z,83.90
2018-12-29T11:21:48.068Z,83.90
2018-12-29T11:24:17.483Z,83.50
2018-12-29T11:26:46.891Z,83.30
2018-12-29T11:29:16.360Z,83.40
2018-12-29T11:31:45.742Z,83.40
2018-12-29T11:34:15.127Z,83.60
2018-12-29T11:36:44.556Z,83.80
2018-12-29T11:39:13.955Z,83.70
2018-12-29T11:41:43.366Z,83.40
2018-12-29T11:44:12.743Z,82.90
2018-12-29T11:46:42.388Z,82.60
2018-12-29T11:49:18.032Z,82.50
2018-12-29T11:51:43.167Z,82.10
2018-12-29T11:54:12.583Z,82.10
2018-12-29T11:56:42.043Z,82.10
2018-12-29T11:59:11.592Z,81.90
2018-12-29T12:01:40.974Z,82.20
2018-12-29T12:04:10.347Z,82.10
2018-12-29T12:06:39.755Z,82.50
2018-12-29T12:09:09.156Z,82.00
2018-12-29T12:11:38.581Z,82.00
2018-12-29T12:14:07.985Z,82.10
2018-12-29T12:16:37.481Z,82.00
2018-12-29T12:19:06.892Z,82.10
2018-12-29T12:21:36.668Z,82.00
2018-12-29T12:24:06.067Z,82.00
2018-12-29T12:26:35.537Z,82.10
2018-12-29T12:29:05.003Z,82.10
2018-12-29T12:31:34.691Z,82.20
2018-12-29T12:34:04.167Z,82.10
2018-12-29T12:36:33.746Z,82.10
2018-12-29T12:39:03.456Z,82.10
2018-12-29T12:41:33.159Z,82.00
2018-12-29T12:44:02.849Z,81.70
2018-12-29T12:46:32.274Z,81.50
2018-12-29T12:49:01.862Z,81.50
2018-12-29T12:51:31.360Z,81.30
2018-12-29T12:54:00.747Z,81.10
2018-12-29T12:56:30.127Z,81.20
2018-12-29T12:58:59.543Z,81.50
2018-12-29T13:01:29.232Z,82.00
2018-12-29T13:03:58.659Z,82.10
2018-12-29T13:06:28.055Z,82.10
2018-12-29T13:08:57.832Z,81.90
2018-12-29T13:11:27.539Z,81.90
2018-12-29T13:13:56.920Z,82.70
2018-12-29T13:16:26.339Z,82.30
2018-12-29T13:18:55.711Z,81.80
2018-12-29T13:21:25.140Z,82.20
2018-12-29T13:23:54.907Z,82.10
2018-12-29T13:26:24.340Z,82.10
2018-12-29T13:28:53.839Z,82.10
2018-12-29T13:31:23.210Z,82.30
2018-12-29T13:33:52.619Z,82.30
2018-12-29T13:36:22.019Z,82.30
2018-12-29T13:38:51.460Z,82.30
2018-12-29T13:41:20.830Z,82.30
2018-12-29T13:43:50.213Z,81.90
2018-12-29T13:46:19.912Z,81.60
2018-12-29T13:48:49.311Z,81.90
2018-12-29T13:51:18.683Z,81.90
2018-12-29T13:53:48.067Z,82.20
2018-12-29T13:56:17.583Z,82.30
2018-12-29T13:58:46.967Z,82.30
2018-12-29T14:01:16.349Z,82.30
2018-12-29T14:03:45.746Z,82.40
2018-12-29T14:06:15.164Z,82.60
2018-12-29T14:08:44.555Z,82.70
2018-12-29T14:11:13.935Z,82.70
2018-12-29T14:13:43.480Z,82.90
2018-12-29T14:16:12.871Z,82.80
2018-12-29T14:18:42.256Z,82.70
2018-12-29T14:21:11.943Z,82.80
2018-12-29T14:23:41.316Z,82.70
2018-12-29T14:26:10.718Z,82.40
2018-12-29T14:28:40.219Z,82.50
2018-12-29T14:31:09.727Z,82.80
2018-12-29T14:33:39.120Z,82.80
2018-12-29T14:36:08.496Z,82.80
2018-12-29T14:38:37.923Z,82.80
2018-12-29T14:41:07.315Z,83.00
2018-12-29T14:43:36.815Z,83.00
2018-12-29T14:46:06.194Z,83.20
2018-12-29T14:48:36.264Z,83.40
2018-12-29T14:51:05.604Z,83.60
2018-12-29T14:53:34.989Z,83.60
2018-12-29T14:56:04.420Z,83.90
2018-12-29T14:58:33.940Z,84.00
2018-12-29T15:01:03.411Z,83.80
2018-12-29T15:03:32.938Z,83.90
2018-12-29T15:06:02.455Z,83.90
2018-12-29T15:08:31.932Z,83.90
2018-12-29T15:11:01.397Z,84.00
2018-12-29T15:13:31.323Z,84.10
2018-12-29T15:16:00.782Z,84.10
2018-12-29T15:18:30.329Z,84.10
2018-12-29T15:20:59.985Z,84.30
2018-12-29T15:23:29.483Z,84.50
2018-12-29T15:25:59.373Z,84.40
2018-12-29T15:28:28.800Z,84.30
2018-12-29T15:30:58.282Z,84.30
2018-12-29T15:33:28.011Z,84.40
2018-12-29T15:35:57.460Z,84.50
2018-12-29T15:38:26.904Z,84.50
2018-12-29T15:40:56.815Z,84.60
2018-12-29T15:43:26.203Z,84.70
2018-12-29T15:45:55.589Z,84.90
2018-12-29T15:48:25.210Z,85.00
2018-12-29T15:50:54.593Z,85.10
2018-12-29T15:53:24.031Z,85.10
2018-12-29T15:55:53.462Z,85.20
2018-12-29T15:58:22.950Z,85.50
2018-12-29T16:00:52.713Z,85.70
2018-12-29T16:03:22.085Z,85.80
2018-12-29T16:05:51.906Z,85.90
2018-12-29T16:08:21.264Z,85.90
2018-12-29T16:10:50.675Z,85.90
2018-12-29T16:13:20.060Z,86.00
2018-12-29T16:15:49.504Z,86.20
2018-12-29T16:18:19.210Z,86.40
2018-12-29T16:20:53.587Z,86.60
2018-12-29T16:23:19.660Z,86.80
2018-12-29T16:25:49.359Z,87.00
2018-12-29T16:28:18.767Z,87.10
2018-12-29T16:30:48.239Z,87.30
2018-12-29T16:33:17.715Z,87.50
2018-12-29T16:35:47.104Z,87.50
2018-12-29T16:38:16.675Z,87.60
2018-12-29T16:40:46.081Z,87.70
2018-12-29T16:43:15.459Z,87.80
2018-12-29T16:45:44.868Z,88.00
2018-12-29T16:48:14.548Z,88.00
2018-12-29T16:50:44.085Z,88.10
2018-12-29T16:53:13.530Z,88.20
2018-12-29T16:55:42.972Z,88.20
2018-12-29T16:58:12.513Z,88.20
2018-12-29T17:00:41.993Z,88.30
2018-12-29T17:03:11.400Z,88.20
2018-12-29T17:05:40.805Z,88.20
2018-12-29T17:08:10.344Z,88.00
2018-12-29T17:10:39.836Z,87.80
2018-12-29T17:13:09.277Z,87.60
2018-12-29T17:15:38.792Z,87.60
2018-12-29T17:18:08.551Z,87.60
2018-12-29T17:20:38.108Z,87.80
2018-12-29T17:23:07.837Z,87.80
2018-12-29T17:25:37.698Z,87.80
2018-12-29T17:28:07.228Z,87.70
2018-12-29T17:30:36.736Z,87.60
2018-12-29T17:33:06.286Z,87.70
2018-12-29T17:35:35.739Z,87.70
2018-12-29T17:38:05.236Z,87.70
2018-12-29T17:40:34.704Z,87.70
2018-12-29T17:43:04.159Z,87.70
2018-12-29T17:45:33.661Z,87.70
2018-12-29T17:48:03.026Z,87.60
2018-12-29T17:50:32.791Z,87.50
2018-12-29T17:53:02.284Z,87.70
2018-12-29T17:55:31.837Z,87.80
2018-12-29T17:58:01.387Z,88.00
2018-12-29T18:00:31.244Z,88.10
2018-12-29T18:03:00.765Z,88.20
2018-12-29T18:05:30.214Z,88.40
2018-12-29T18:07:59.772Z,88.50
2018-12-29T18:10:29.600Z,88.60
2018-12-29T18:12:59.295Z,88.70
2018-12-29T18:15:28.912Z,88.90
2018-12-29T18:17:58.436Z,89.10
2018-12-29T18:20:27.929Z,89.00
2018-12-29T18:22:57.393Z,89.10
2018-12-29T18:25:26.873Z,89.20
2018-12-29T18:27:56.414Z,89.50
2018-12-29T18:30:25.884Z,89.70
2018-12-29T18:32:55.488Z,89.80
2018-12-29T18:35:25.035Z,89.90
2018-12-29T18:37:54.513Z,89.80
2018-12-29T18:40:24.912Z,89.90
2018-12-29T18:42:54.460Z,89.90
2018-12-29T18:45:24.185Z,89.90
2018-12-29T18:47:53.925Z,89.80
2018-12-29T18:50:23.392Z,89.60
2018-12-29T18:52:52.858Z,89.40
2018-12-29T18:55:22.368Z,89.20
2018-12-29T18:57:51.957Z,89.00
2018-12-29T19:00:21.460Z,89.00
2018-12-29T19:02:50.880Z,89.30
2018-12-29T19:05:20.407Z,89.60
2018-12-29T19:07:50.002Z,89.90
2018-12-29T19:10:19.468Z,90.00
2018-12-29T19:12:48.924Z,90.00
2018-12-29T19:15:18.515Z,90.10
2018-12-29T19:17:48.344Z,90.10
2018-12-29T19:20:18.169Z,90.10
2018-12-29T19:22:48.087Z,90.20
2018-12-29T19:25:17.463Z,90.20
2018-12-29T19:27:46.984Z,90.20
2018-12-29T19:30:16.392Z,90.30
2018-12-29T19:32:45.993Z,90.20
2018-12-29T19:35:15.658Z,90.20
2018-12-29T19:37:45.163Z,90.10
2018-12-29T19:40:14.827Z,90.10
2018-12-29T19:42:44.779Z,90.10
2018-12-29T19:45:14.340Z,90.10
2018-12-29T19:47:43.960Z,90.00
2018-12-29T19:50:13.612Z,90.00
2018-12-29T19:52:43.117Z,89.90
2018-12-29T19:55:12.591Z,89.80
2018-12-29T19:57:42.023Z,89.70
2018-12-29T20:00:11.890Z,89.60
2018-12-29T20:02:41.607Z,89.50
2018-12-29T20:05:11.367Z,89.50
2018-12-29T20:07:40.861Z,89.70
2018-12-29T20:10:10.281Z,89.80
2018-12-29T20:12:39.676Z,89.80
2018-12-29T20:15:09.102Z,90.00
2018-12-29T20:17:38.709Z,90.00
2018-12-29T20:20:08.194Z,90.00
2018-12-29T20:22:37.748Z,90.10
2018-12-29T20:25:07.558Z,90.10
2018-12-29T20:27:37.097Z,90.10
2018-12-29T20:30:07.848Z,90.10
2018-12-29T20:32:37.504Z,90.10
2018-12-29T20:35:06.884Z,90.10
2018-12-29T20:37:36.295Z,90.10
2018-12-29T20:40:05.934Z,90.10
2018-12-29T20:42:35.367Z,90.10
2018-12-29T20:45:04.922Z,90.10
2018-12-29T20:47:34.464Z,90.00
2018-12-29T20:50:09.588Z,90.00
2018-12-29T20:52:35.581Z,89.90
2018-12-29T20:55:05.578Z,89.80
2018-12-29T20:57:35.829Z,89.80
2018-12-29T21:00:06.675Z,89.80
2018-12-29T21:02:36.486Z,90.00
2018-12-29T21:05:06.579Z,90.00
2018-12-29T21:07:36.383Z,90.10
2018-12-29T21:10:06.094Z,90.10
2018-12-29T21:12:35.764Z,90.20
2018-12-29T21:15:05.504Z,90.10
2018-12-29T21:17:34.997Z,90.00
2018-12-29T21:20:04.526Z,90.00
2018-12-29T21:22:34.136Z,90.00
2018-12-29T21:25:03.804Z,90.00
2018-12-29T21:27:33.369Z,90.00
2018-12-29T21:30:02.851Z,89.90
2018-12-29T21:32:32.277Z,89.90
2018-12-29T21:35:01.860Z,89.90
2018-12-29T21:37:31.358Z,89.80
2018-12-29T21:40:00.785Z,89.80
2018-12-29T21:42:30.223Z,89.60
2018-12-29T21:44:59.806Z,89.50
2018-12-29T21:47:29.210Z,89.20
2018-12-29T21:49:58.620Z,89.20
2018-12-29T21:52:28.007Z,89.10
2018-12-29T21:54:57.603Z,89.20
2018-12-29T21:57:27.193Z,89.10
2018-12-29T21:59:56.568Z,89.10
2018-12-29T22:02:25.967Z,89.00
2018-12-29T22:04:55.371Z,88.90
2018-12-29T22:07:24.854Z,88.80
2018-12-29T22:09:54.230Z,88.30
2018-12-29T22:12:23.644Z,88.30
2018-12-29T22:14:53.050Z,88.30
2018-12-29T22:17:22.435Z,88.10
2018-12-29T22:19:51.839Z,87.90
2018-12-29T22:22:21.231Z,87.80
2018-12-29T22:24:50.667Z,87.90
2018-12-29T22:27:20.023Z,87.90
2018-12-29T22:29:49.424Z,87.80
2018-12-29T22:32:18.855Z,87.70
2018-12-29T22:34:48.295Z,87.80
2018-12-29T22:37:17.712Z,88.20
2018-12-29T22:39:47.115Z,88.60
2018-12-29T22:42:16.534Z,89.10
2018-12-29T22:44:45.935Z,89.30
2018-12-29T22:47:15.306Z,89.40
2018-12-29T22:49:44.800Z,89.80
2018-12-29T22:52:14.204Z,90.30
2018-12-29T22:54:43.606Z,90.00
2018-12-29T22:57:12.975Z,90.00
2018-12-29T22:59:42.409Z,90.10
2018-12-29T23:02:11.992Z,90.20
2018-12-29T23:04:41.373Z,90.20
2018-12-29T23:07:11.115Z,90.30
2018-12-29T23:09:40.488Z,90.40
2018-12-29T23:12:09.887Z,90.50
2018-12-29T23:14:39.267Z,90.50
2018-12-29T23:17:08.867Z,90.50
2018-12-29T23:19:38.247Z,90.50
2018-12-29T23:22:07.639Z,90.50
2018-12-29T23:24:37.044Z,90.50
2018-12-29T23:27:06.426Z,90.60
2018-12-29T23:29:35.840Z,90.70
2018-12-29T23:32:05.426Z,90.80
2018-12-29T23:34:35.247Z,90.70
2018-12-29T23:37:04.728Z,90.80
2018-12-29T23:39:34.125Z,90.90
2018-12-29T23:42:03.543Z,91.10
2018-12-29T23:44:32.911Z,91.10
2018-12-29T23:47:02.300Z,91.20
2018-12-29T23:49:32.087Z,91.20
2018-12-29T23:52:01.671Z,91.20
2018-12-29T23:54:31.182Z,91.30
2018-12-29T23:57:00.850Z,91.30
2018-12-29T23:59:30.227Z,91.40
